createdAt,value
2019-01-06T00:08:52.373Z,86.84
2019-01-06T00:27:59.221Z,86.99
2019-01-06T00:30:40.990Z,87.07
2019-01-06T00:33:31.572Z,87.00
2019-01-06T00:36:12.785Z,86.99
2019-01-06T00:38:55.905Z,87.13
2019-01-06T00:42:33.719Z,87.18
2019-01-06T00:44:33.523Z,86.93
2019-01-06T00:47:17.315Z,86.81
2019-01-06T00:50:17.778Z,86.87
2019-01-06T00:56:31.987Z,86.92
2019-01-06T00:59:26.058Z,86.66
2019-01-06T01:02:21.196Z,86.54
2019-01-06T01:05:22.160Z,86.87
2019-01-06T01:08:11.129Z,87.03
2019-01-06T01:11:05.261Z,87.07
2019-01-06T01:14:25.741Z,87.22
2019-01-06T01:17:12.121Z,86.95
2019-01-06T01:20:30.706Z,86.96
2019-01-06T01:22:50.236Z,86.96
2019-01-06T01:25:27.997Z,86.66
2019-01-06T01:32:09.318Z,86.99
2019-01-06T01:35:23.349Z,86.73
2019-01-06T01:37:37.481Z,86.58
2019-01-06T01:40:37.558Z,86.52
2019-01-06T01:44:07.880Z,86.81
2019-01-06T01:49:43.446Z,88.07
2019-01-06T01:53:01.541Z,88.09
2019-01-06T01:56:18.083Z,87.90
2019-01-06T01:58:45.592Z,88.14
2019-01-06T02:01:32.224Z,88.21
2019-01-06T02:04:28.202Z,88.05
2019-01-06T02:07:16.078Z,88.12
2019-01-06T02:13:06.530Z,88.22
2019-01-06T02:16:03.037Z,88.10
2019-01-06T02:19:09.311Z,87.93
2019-01-06T02:21:45.212Z,87.96
2019-01-06T02:28:48.310Z,88.04
2019-01-06T02:30:44.192Z,88.14
2019-01-06T02:33:53.422Z,88.19
2019-01-06T02:36:34.278Z,88.18
2019-01-06T02:39:30.545Z,88.16
2019-01-06T02:42:15.814Z,87.93
2019-01-06T02:45:02.001Z,87.84
2019-01-06T02:47:58.705Z,87.87
2019-01-06T02:50:46.664Z,87.74
2019-01-06T02:53:54.936Z,87.92
2019-01-06T02:56:48.748Z,87.98
2019-01-06T03:00:06.660Z,87.79
2019-01-06T03:02:51.340Z,87.77
2019-01-06T03:12:17.067Z,87.38
2019-01-06T03:15:31.419Z,87.49
2019-01-06T03:18:29.288Z,87.80
2019-01-06T03:21:27.965Z,87.64
2019-01-06T03:27:49.149Z,87.70
2019-01-06T03:30:34.877Z,87.72
2019-01-06T03:33:36.956Z,87.83
2019-01-06T03:36:35.321Z,87.79
2019-01-06T03:39:13.208Z,87.79
2019-01-06T03:41:54.800Z,87.54
2019-01-06T03:44:49.661Z,87.08
2019-01-06T03:50:59.914Z,86.21
2019-01-06T03:53:56.093Z,86.23
2019-01-06T03:59:53.726Z,86.83
2019-01-06T04:02:51.293Z,86.74
2019-01-06T04:05:46.588Z,86.82
2019-01-06T04:08:37.395Z,86.70
2019-01-06T04:11:30.625Z,85.82
2019-01-06T04:14:33.615Z,86.08
2019-01-06T04:17:35.472Z,85.93
2019-01-06T04:20:29.107Z,86.39
2019-01-06T04:23:26.951Z,87.10
2019-01-06T04:26:12.846Z,87.04
2019-01-06T04:29:10.205Z,87.12
2019-01-06T04:31:49.179Z,87.06
2019-01-06T04:34:35.420Z,87.19
2019-01-06T04:37:19.961Z,86.85
2019-01-06T04:40:14.955Z,87.14
2019-01-06T04:43:03.636Z,86.94
2019-01-06T04:45:56.664Z,86.77
2019-01-06T04:48:41.632Z,86.75
2019-01-06T04:51:38.887Z,86.35
2019-01-06T04:54:23.230Z,85.91
2019-01-06T04:57:16.987Z,86.20
2019-01-06T05:03:01.450Z,86.07
2019-01-06T05:05:53.080Z,85.97
2019-01-06T05:14:21.584Z,86.82
2019-01-06T05:17:09.064Z,86.83
2019-01-06T05:19:46.231Z,87.52
2019-01-06T05:22:26.746Z,87.77
2019-01-06T05:25:07.452Z,87.63
2019-01-06T05:27:41.311Z,87.68
2019-01-06T05:30:41.757Z,87.84
2019-01-06T05:33:15.852Z,87.67
2019-01-06T05:36:03.307Z,87.61
2019-01-06T05:38:37.363Z,87.47
2019-01-06T05:41:14.642Z,87.50
2019-01-06T05:43:48.918Z,87.67
2019-01-06T05:46:32.184Z,87.92
2019-01-06T05:49:15.547Z,87.69
2019-01-06T05:51:49.664Z,87.67
2019-01-06T05:54:23.852Z,87.88
2019-01-06T05:57:10.322Z,87.83
2019-01-06T05:59:50.219Z,87.84
2019-01-06T06:02:37.793Z,87.87
2019-01-06T06:05:25.061Z,87.95
2019-01-06T06:08:33.209Z,87.95
2019-01-06T06:11:15.444Z,88.13
2019-01-06T06:13:49.575Z,88.01
2019-01-06T06:16:29.732Z,88.30
2019-01-06T06:19:19.491Z,88.37
2019-01-06T06:22:07.068Z,88.36
2019-01-06T06:24:54.400Z,88.39
2019-01-06T06:27:44.316Z,88.10
2019-01-06T06:30:15.665Z,88.30
2019-01-06T06:32:55.896Z,88.39
2019-01-06T06:35:27.189Z,88.40
2019-01-06T06:37:58.479Z,88.37
2019-01-06T06:40:29.858Z,88.24
2019-01-06T06:43:10.510Z,88.38
2019-01-06T06:45:50.615Z,88.47
2019-01-06T06:48:33.681Z,88.31
2019-01-06T06:51:16.815Z,88.03
2019-01-06T06:53:53.818Z,87.92
2019-01-06T06:56:36.788Z,87.69
2019-01-06T06:59:08.171Z,87.69
2019-01-06T07:01:42.819Z,87.78
2019-01-06T07:04:23.252Z,87.58
2019-01-06T07:07:06.439Z,87.38
2019-01-06T07:09:37.695Z,87.43
2019-01-06T07:12:09.044Z,87.71
2019-01-06T07:14:40.313Z,87.76
2019-01-06T07:17:48.760Z,87.84
2019-01-06T07:20:28.677Z,87.48
2019-01-06T07:23:02.730Z,87.13
2019-01-06T07:25:33.972Z,86.96
2019-01-06T07:28:14.514Z,87.35
2019-01-06T07:31:03.906Z,87.15
2019-01-06T07:33:37.728Z,86.89
2019-01-06T07:36:21.392Z,86.68
2019-01-06T07:39:08.545Z,86.96
2019-01-06T07:41:56.411Z,87.00
2019-01-06T07:44:37.094Z,87.00
2019-01-06T07:47:23.530Z,87.13
2019-01-06T07:49:54.848Z,87.33
2019-01-06T07:52:26.105Z,87.40
2019-01-06T07:55:03.172Z,87.49
2019-01-06T07:57:34.844Z,87.58
2019-01-06T08:00:23.303Z,87.44
2019-01-06T08:03:06.565Z,86.81
2019-01-06T08:05:52.983Z,86.74
2019-01-06T08:08:24.271Z,86.88
2019-01-06T08:10:58.459Z,86.97
2019-01-06T08:13:32.389Z,86.91
2019-01-06T08:16:03.692Z,86.46
2019-01-06T08:18:51.509Z,86.65
2019-01-06T08:21:22.819Z,86.27
2019-01-06T08:24:10.445Z,86.39
2019-01-06T08:26:47.666Z,86.57
2019-01-06T08:29:21.567Z,86.81
2019-01-06T08:32:11.517Z,86.89
2019-01-06T08:34:42.757Z,86.78
2019-01-06T08:37:19.957Z,86.75
2019-01-06T08:39:51.224Z,86.54
2019-01-06T08:42:38.687Z,86.13
2019-01-06T08:45:26.274Z,86.06
2019-01-06T08:48:06.697Z,86.38
2019-01-06T08:50:44.094Z,86.45
2019-01-06T08:53:31.740Z,86.95
2019-01-06T08:56:18.887Z,87.12
2019-01-06T08:58:59.251Z,87.09
2019-01-06T09:01:39.686Z,87.00
2019-01-06T09:04:25.934Z,86.69
2019-01-06T09:07:09.304Z,86.80
2019-01-06T09:09:45.513Z,86.73
2019-01-06T09:12:28.226Z,86.63
2019-01-06T09:14:59.607Z,86.94
2019-01-06T09:17:46.863Z,87.19
2019-01-06T09:20:24.136Z,87.45
2019-01-06T09:23:17.561Z,87.12
2019-01-06T09:26:01.438Z,87.23
2019-01-06T09:28:50.174Z,87.25
2019-01-06T09:31:33.700Z,87.10
2019-01-06T09:34:19.857Z,86.81
2019-01-06T09:36:54.592Z,86.73
2019-01-06T09:39:30.854Z,86.92
2019-01-06T09:42:04.894Z,86.98
2019-01-06T09:44:41.853Z,87.29
2019-01-06T09:47:33.618Z,87.12
2019-01-06T09:50:21.677Z,87.11
2019-01-06T09:52:58.884Z,86.60
2019-01-06T09:55:43.400Z,86.59
2019-01-06T09:58:14.118Z,86.54
2019-01-06T10:01:00.869Z,86.44
2019-01-06T10:03:47.190Z,86.80
2019-01-06T10:06:24.210Z,87.17
2019-01-06T10:09:16.774Z,87.00
2019-01-06T10:12:07.229Z,87.26
2019-01-06T10:15:05.319Z,87.21
2019-01-06T10:17:41.205Z,87.38
2019-01-06T10:20:19.049Z,87.39
2019-01-06T10:23:05.291Z,87.38
2019-01-06T10:25:39.952Z,87.25
2019-01-06T10:28:17.651Z,87.16
2019-01-06T10:31:05.225Z,87.14
2019-01-06T10:34:01.844Z,86.91
2019-01-06T10:36:42.709Z,86.88
2019-01-06T10:40:07.256Z,86.65
2019-01-06T10:43:08.200Z,86.47
2019-01-06T10:45:45.877Z,86.38
2019-01-06T10:48:55.686Z,86.38
2019-01-06T10:51:46.964Z,86.43
2019-01-06T10:54:33.880Z,86.42
2019-01-06T10:57:05.113Z,86.57
2019-01-06T10:59:36.870Z,86.32
2019-01-06T11:02:14.394Z,86.40
2019-01-06T11:05:05.851Z,86.25
2019-01-06T11:10:45.118Z,86.45
2019-01-06T11:13:16.473Z,86.42
2019-01-06T11:15:47.976Z,86.46
2019-01-06T11:18:31.224Z,86.58
2019-01-06T11:21:05.710Z,86.63
2019-01-06T11:23:53.244Z,86.51
2019-01-06T11:26:30.204Z,86.44
2019-01-06T11:29:03.428Z,86.30
2019-01-06T11:31:50.275Z,86.32
2019-01-06T11:34:21.807Z,86.30
2019-01-06T11:37:05.373Z,86.51
2019-01-06T11:39:55.210Z,86.39
2019-01-06T11:42:42.469Z,86.50
2019-01-06T11:45:16.625Z,86.55
2019-01-06T11:47:48.148Z,86.48
2019-01-06T11:50:25.633Z,86.58
2019-01-06T11:52:56.974Z,86.59
2019-01-06T11:55:34.141Z,86.65
2019-01-06T11:58:21.261Z,86.87
2019-01-06T12:01:08.819Z,86.86
2019-01-06T12:03:42.740Z,86.86
2019-01-06T12:06:30.308Z,86.90
2019-01-06T12:09:07.194Z,86.93
2019-01-06T12:11:41.104Z,87.02
2019-01-06T12:14:18.143Z,87.20
2019-01-06T12:17:05.257Z,87.40
2019-01-06T12:19:39.501Z,87.42
2019-01-06T12:22:26.744Z,87.58
2019-01-06T12:24:58.291Z,87.91
2019-01-06T12:27:46.033Z,88.04
2019-01-06T12:30:17.343Z,87.90
2019-01-06T12:33:04.430Z,87.90
2019-01-06T12:35:51.867Z,87.97
2019-01-06T12:38:39.169Z,88.08
2019-01-06T12:41:10.369Z,88.17
2019-01-06T12:43:47.592Z,88.24
2019-01-06T12:46:18.995Z,88.26
2019-01-06T12:48:58.905Z,88.13
2019-01-06T12:51:48.482Z,88.08
2019-01-06T12:54:37.878Z,88.19
2019-01-06T12:57:14.772Z,88.37
2019-01-06T12:59:56.260Z,88.40
2019-01-06T13:02:30.998Z,88.45
2019-01-06T13:05:14.928Z,88.41
2019-01-06T13:07:55.035Z,88.40
2019-01-06T13:10:28.904Z,88.39
2019-01-06T13:13:15.007Z,88.45
2019-01-06T13:15:51.669Z,88.44
2019-01-06T13:18:31.772Z,88.47
2019-01-06T13:21:03.130Z,88.45
2019-01-06T13:23:34.410Z,88.48
2019-01-06T13:26:08.047Z,88.49
2019-01-06T13:28:45.023Z,88.47
2019-01-06T13:31:16.289Z,88.51
2019-01-06T13:33:50.136Z,88.54
2019-01-06T13:36:24.132Z,88.66
2019-01-06T13:38:55.508Z,88.67
2019-01-06T13:41:35.192Z,88.59
2019-01-06T13:44:22.720Z,88.54
2019-01-06T13:47:10.314Z,88.52
2019-01-06T13:49:41.552Z,88.58
2019-01-06T13:52:12.762Z,88.67
2019-01-06T13:54:46.453Z,88.77
2019-01-06T13:57:26.546Z,88.76
2019-01-06T13:59:58.046Z,88.80
2019-01-06T14:02:47.639Z,88.78
2019-01-06T14:05:35.255Z,88.75
2019-01-06T14:08:22.385Z,88.71
2019-01-06T14:10:53.732Z,88.79
2019-01-06T14:13:27.921Z,88.80
2019-01-06T14:16:01.572Z,88.78
2019-01-06T14:18:32.843Z,88.83
2019-01-06T14:21:04.093Z,88.83
2019-01-06T14:23:44.439Z,88.89
2019-01-06T14:26:18.886Z,88.85
2019-01-06T14:29:06.463Z,88.86
2019-01-06T14:31:54.330Z,88.86
2019-01-06T14:34:43.766Z,88.86
2019-01-06T14:37:28.071Z,88.97
2019-01-06T14:40:05.165Z,88.93
2019-01-06T14:42:41.824Z,88.94
2019-01-06T14:45:12.953Z,89.05
2019-01-06T14:47:49.733Z,89.00
2019-01-06T14:50:36.969Z,89.06
2019-01-06T14:53:08.122Z,89.05
2019-01-06T14:55:42.231Z,89.12
2019-01-06T14:58:16.076Z,89.14
2019-01-06T15:00:47.270Z,89.03
2019-01-06T15:03:34.723Z,88.62
2019-01-06T15:06:22.374Z,88.26
2019-01-06T15:09:08.402Z,88.27
2019-01-06T15:11:56.030Z,88.28
2019-01-06T15:14:36.302Z,88.15
2019-01-06T15:17:23.528Z,88.12
2019-01-06T15:19:54.838Z,87.98
2019-01-06T15:22:44.305Z,87.87
2019-01-06T15:25:15.578Z,87.95
2019-01-06T15:27:46.821Z,87.89
2019-01-06T15:30:34.204Z,87.74
2019-01-06T15:33:05.518Z,87.55
2019-01-06T15:35:53.131Z,87.49
2019-01-06T15:38:30.368Z,87.53
2019-01-06T15:41:18.141Z,87.50
2019-01-06T15:43:58.394Z,87.18
2019-01-06T15:46:35.741Z,86.83
2019-01-06T15:49:24.970Z,86.72
2019-01-06T15:52:08.564Z,86.88
2019-01-06T15:54:40.644Z,87.10
2019-01-06T15:57:17.605Z,87.40
2019-01-06T16:00:05.262Z,87.36
2019-01-06T16:02:36.585Z,87.67
2019-01-06T16:05:23.874Z,87.86
2019-01-06T16:08:11.506Z,88.14
2019-01-06T16:10:45.658Z,88.28
2019-01-06T16:13:22.859Z,88.48
2019-01-06T16:15:54.065Z,88.60
2019-01-06T16:21:23.961Z,88.72
2019-01-06T16:23:56.445Z,88.67
2019-01-06T16:26:43.499Z,88.62
2019-01-06T16:29:31.190Z,88.66
2019-01-06T16:32:18.664Z,88.61
2019-01-06T16:34:52.921Z,88.49
2019-01-06T16:37:26.838Z,88.46
2019-01-06T16:40:14.301Z,88.43
2019-01-06T16:42:45.635Z,88.18
2019-01-06T16:45:16.938Z,88.02
2019-01-06T16:47:51.141Z,88.09
2019-01-06T16:50:34.316Z,87.91
2019-01-06T16:53:08.072Z,87.89
2019-01-06T16:55:40.959Z,87.27
2019-01-06T16:58:18.104Z,87.44
2019-01-06T17:01:01.353Z,87.49
2019-01-06T17:03:32.819Z,87.38
2019-01-06T17:06:07.018Z,87.01
2019-01-06T17:08:50.216Z,86.76
2019-01-06T17:11:24.917Z,86.51
2019-01-06T17:14:08.330Z,86.30
2019-01-06T17:16:51.582Z,86.39
2019-01-06T17:19:37.769Z,86.21
2019-01-06T17:22:11.605Z,85.77
2019-01-06T17:24:45.574Z,85.86
2019-01-06T17:27:31.760Z,85.92
2019-01-06T17:30:11.764Z,85.89
2019-01-06T17:32:45.696Z,85.70
2019-01-06T17:35:19.830Z,85.90
2019-01-06T17:38:00.250Z,85.99
2019-01-06T17:40:49.363Z,85.78
2019-01-06T17:43:35.827Z,85.84
2019-01-06T17:46:22.928Z,85.91
2019-01-06T17:49:00.393Z,85.94
2019-01-06T17:51:46.376Z,86.11
2019-01-06T17:54:26.521Z,86.08
2019-01-06T17:57:00.652Z,85.15
2019-01-06T17:59:31.922Z,85.03
2019-01-06T18:02:19.446Z,85.43
2019-01-06T18:05:06.886Z,85.71
2019-01-06T18:07:44.404Z,84.23
2019-01-06T18:10:24.253Z,84.25
2019-01-06T18:12:55.531Z,84.40
2019-01-06T18:15:35.855Z,84.74
2019-01-06T18:18:22.328Z,85.02
2019-01-06T18:21:09.815Z,84.93
2019-01-06T18:23:57.237Z,84.74
2019-01-06T18:26:45.833Z,84.86
2019-01-06T18:29:17.243Z,85.21
2019-01-06T18:32:00.647Z,85.18
2019-01-06T18:34:31.842Z,85.25
2019-01-06T18:37:12.074Z,85.21
2019-01-06T18:39:48.782Z,85.08
2019-01-06T18:42:26.064Z,85.10
2019-01-06T18:44:59.751Z,85.02
2019-01-06T18:47:33.666Z,85.10
2019-01-06T18:50:04.971Z,85.19
2019-01-06T18:52:36.363Z,85.43
2019-01-06T18:55:23.550Z,85.62
2019-01-06T18:58:11.213Z,85.69
2019-01-06T19:00:54.802Z,85.60
2019-01-06T19:03:42.059Z,85.61
2019-01-06T19:06:20.126Z,85.62
2019-01-06T19:08:57.569Z,85.70
2019-01-06T19:11:28.843Z,85.66
2019-01-06T19:14:18.377Z,85.66
2019-01-06T19:17:04.383Z,85.39
2019-01-06T19:19:51.462Z,85.42
2019-01-06T19:22:38.992Z,85.44
2019-01-06T19:25:13.166Z,85.33
2019-01-06T19:27:56.773Z,85.04
2019-01-06T19:30:33.850Z,84.64
2019-01-06T19:33:21.682Z,84.74
2019-01-06T19:36:09.254Z,84.81
2019-01-06T19:38:56.853Z,84.80
2019-01-06T19:41:30.808Z,84.66
2019-01-06T19:44:08.101Z,84.82
2019-01-06T19:46:39.390Z,84.79
2019-01-06T19:49:10.537Z,84.72
2019-01-06T19:51:57.603Z,84.67
2019-01-06T19:54:34.641Z,84.58
2019-01-06T19:57:09.025Z,84.94
2019-01-06T19:59:43.083Z,85.04
2019-01-06T20:02:14.239Z,85.08
2019-01-06T20:04:45.507Z,85.02
2019-01-06T20:07:22.708Z,85.17
2019-01-06T20:10:03.060Z,85.03
2019-01-06T20:12:51.239Z,84.96
2019-01-06T20:15:34.953Z,84.84
2019-01-06T20:18:23.428Z,84.21
2019-01-06T20:21:29.289Z,84.28
2019-01-06T20:24:16.815Z,84.18
2019-01-06T20:26:50.843Z,83.96
2019-01-06T20:29:40.027Z,84.04
2019-01-06T20:32:20.398Z,84.17
2019-01-06T20:35:00.286Z,84.17
2019-01-06T20:37:47.376Z,84.24
2019-01-06T20:40:34.751Z,84.05
2019-01-06T20:43:21.421Z,84.02
2019-01-06T20:46:08.790Z,83.87
2019-01-06T20:48:42.780Z,84.00
2019-01-06T20:51:14.012Z,83.76
2019-01-06T20:54:01.882Z,83.76
2019-01-06T20:56:33.335Z,83.78
2019-01-06T20:59:13.211Z,83.58
2019-01-06T21:01:53.260Z,83.75
2019-01-06T21:04:33.551Z,83.65
2019-01-06T21:07:17.222Z,83.64
2019-01-06T21:09:48.523Z,83.89
2019-01-06T21:12:37.885Z,84.09
2019-01-06T21:15:11.792Z,84.06
2019-01-06T21:17:43.081Z,84.11
2019-01-06T21:20:14.310Z,84.08
2019-01-06T21:23:01.965Z,84.12
2019-01-06T21:25:36.061Z,83.96
2019-01-06T21:28:13.318Z,83.81
2019-01-06T21:31:03.387Z,83.98
2019-01-06T21:33:43.866Z,83.93
2019-01-06T21:36:33.222Z,83.99
2019-01-06T21:39:16.488Z,84.08
2019-01-06T21:42:03.922Z,84.17
2019-01-06T21:44:44.056Z,84.13
2019-01-06T21:47:31.323Z,83.81
2019-01-06T21:50:02.511Z,84.16
2019-01-06T21:52:33.850Z,84.13
2019-01-06T21:55:05.222Z,84.02
2019-01-06T21:57:55.001Z,84.17
2019-01-06T22:00:29.345Z,84.40
2019-01-06T22:03:18.608Z,84.58
2019-01-06T22:05:55.836Z,84.77
2019-01-06T22:08:32.730Z,84.75
2019-01-06T22:11:12.898Z,84.90
2019-01-06T22:14:02.675Z,85.02
2019-01-06T22:16:36.589Z,84.40
2019-01-06T22:19:16.773Z,84.04
2019-01-06T22:22:06.128Z,83.93
2019-01-06T22:24:41.305Z,83.45
2019-01-06T22:27:12.687Z,83.33
2019-01-06T22:29:49.945Z,83.11
2019-01-06T22:32:37.113Z,83.11
2019-01-06T22:35:08.420Z,83.19
2019-01-06T22:37:45.527Z,83.21
2019-01-06T22:40:31.810Z,82.93
2019-01-06T22:43:08.763Z,83.25
2019-01-06T22:45:48.648Z,83.59
2019-01-06T22:48:28.818Z,83.61
2019-01-06T22:51:05.866Z,83.57
2019-01-06T22:53:37.226Z,83.28
2019-01-06T22:56:20.769Z,83.40
2019-01-06T22:59:04.084Z,83.50
2019-01-06T23:01:51.372Z,83.28
2019-01-06T23:04:28.323Z,83.38
2019-01-06T23:06:59.514Z,83.46
2019-01-06T23:09:39.437Z,83.20
2019-01-06T23:12:19.675Z,83.06
2019-01-06T23:14:53.634Z,83.47
2019-01-06T23:17:43.193Z,83.07
2019-01-06T23:20:17.424Z,83.18
2019-01-06T23:22:51.324Z,83.13
2019-01-06T23:25:39.095Z,83.08
2019-01-06T23:28:26.694Z,83.19
2019-01-06T23:31:03.857Z,83.18
2019-01-06T23:33:40.987Z,83.12
2019-01-06T23:36:28.425Z,83.37
2019-01-06T23:39:16.042Z,83.16
2019-01-06T23:42:03.466Z,83.27
2019-01-06T23:44:37.380Z,83.49
2019-01-06T23:47:20.419Z,83.49
2019-01-06T23:49:54.460Z,83.45
2019-01-06T23:52:31.401Z,83.81
2019-01-06T23:55:17.629Z,83.73
2019-01-06T23:57:51.628Z,83.38
